Date,TemperatureHighF,TemperatureAvgF,TemperatureLowF,DewpointHighF,DewpointAvgF,DewpointLowF,HumidityHigh,HumidityAvg,HumidityLow,PressureMaxIn,PressureMinIn,WindSpeedMaxMPH,WindSpeedAvgMPH,GustSpeedMaxMPH,PrecipitationSumIn
2013-10-1,73,63,45,38,28,15,43,28,14,0.00,0.00,10,2,10,0.00
2013-10-2,71,56,37,45,28,21,75,40,17,0.00,0.00,14,2,14,0.55
2013-10-3,55,54,53,50,48,45,84,80,73,0.00,0.00,17,7,17,0.39
2013-10-4,56,56,56,52,49,47,84,79,71,0.00,0.00,13,4,13,0.39
2013-10-5,62,57,51,57,51,46,86,82,75,0.00,0.00,15,3,15,0.87
2013-10-6,51,46,42,46,41,38,83,82,80,0.00,0.00,5,0,5,0.00
2013-10-9,70,65,58,36,32,29,40,29,23,0.00,0.00,15,5,15,0.04
2013-10-10,69,57,41,44,32,28,74,41,22,0.00,0.00,20,4,20,0.00
2013-10-11,72,64,49,43,35,32,66,36,23,0.00,0.00,26,11,27,0.00
2013-10-12,67,56,48,37,28,21,44,34,27,0.00,0.00,19,3,19,0.00
2013-10-13,56,45,35,36,22,14,70,43,20,0.00,0.00,8,1,8,0.00
2013-10-14,56,44,32,36,26,21,75,52,26,0.00,0.00,22,3,22,0.00
2013-10-15,54,50,47,49,41,26,83,73,38,0.00,0.00,19,6,19,0.79
2013-10-16,47,43,33,41,31,20,81,64,44,0.00,0.00,10,2,10,0.04
2013-10-17,52,42,31,42,28,25,83,62,37,0.00,0.00,5,0,5,0.04
2013-10-18,48,42,36,34,19,14,78,41,27,0.00,0.00,12,2,12,0.04
2013-10-19,43,38,29,28,22,18,72,53,43,0.00,0.00,10,1,10,0.04
2013-10-20,39,31,27,33,24,21,81,76,71,0.00,0.00,11,1,11,0.20
2013-10-21,35,34,32,30,15,7,81,48,31,0.00,0.00,9,1,9,0.00
2013-10-22,39,34,26,20,13,6,56,41,33,0.00,0.00,11,2,11,0.00
2013-10-23,37,31,22,23,12,7,65,45,33,0.00,0.00,9,2,9,0.00
2013-10-24,40,35,31,17,13,9,45,41,30,0.00,0.00,10,1,10,0.00
2013-10-25,54,42,33,23,17,11,51,37,28,0.00,0.00,21,2,21,0.00
2013-10-26,50,43,34,25,16,11,43,34,28,0.00,0.00,15,3,15,0.00
2013-10-27,55,40,27,20,15,10,57,38,25,0.00,0.00,15,2,15,0.00
2013-10-28,40,34,27,20,9,1,51,35,23,0.00,0.00,16,3,16,0.00
2013-10-29,39,33,25,21,13,3,49,43,36,0.00,0.00,9,2,9,0.00
2013-10-30,51,44,37,48,36,21,92,75,49,0.00,0.00,9,2,9,0.08
2013-10-31,52,47,40,49,45,38,93,92,91,0.00,0.00,8,0,8,0.08